Aérodrome :
LOGIN :

S'inscrire | Disclaimer

   EN    FR    IT 

 










Légende :    VFR   VFR Marginal   IFR   IFR Intensif   IFR Très Intensif
Visi : 
Plafond : 
>= 8 km
>= 3000ft
5 à 8 km
1000 à 3000 ft
1500m à 5 km
500 à 1000 ft
800 à 1500m
200 à 500 ft
< 800m
< 200 ft
Symboles :   Orages  Brouillard  Fortes neiges  Fortes précipitations  Vent > 20 kt
SIGMETs :   Divers  Orages  Givrage  Turbulence  Onde Orograph.  Cendres Volcan.







- Altitude de l'aérodrome : 238 ft
- Code IATA : FAB
- Voir les cartes d'approche


EGLF - Farnborough

DERNIER METAR :
  • 201450Z 24007KT 210V280 CAVOK 17/10 Q1030

METARs EXPIRÉS :
  • 201420Z 24006KT 220V280 CAVOK 17/10 Q1030
  • 201350Z 20006KT 160V230 CAVOK 18/10 Q1031
  • 201320Z 24007KT CAVOK 17/10 Q1031
  • 201250Z 23007KT 200V270 CAVOK 17/10 Q1031
  • 201220Z 23005KT 180V270 CAVOK 16/09 Q1031

TAF TAF EGLF
Valide du 20 à 15h jusqu'au 20 à 19h UTC


201358Z 2015/2019 21003KT CAVOK
PROB30 2018/2019 8000
ATIS : +44 09063 800 400 (*282)
Pas de NOTAMs connus pour ce terrain.



MET'MAP, la Météo Aéronautique d'un coup d'oeil ! - Copyright ORBIFLY Décembre 2007 - Disclaimer

ORBIFLY MET'MAP TEAM :

Programmation & Développement : Alexandra Zaïnal
Conception & Développement : Baudouin d'Aumeries
Co-Programmation & Développement : Marc-Olivier Méhu
Soutien technique & logistique : Manuel Goepfert

Contact : metmap@orbifly.com




SOURCES & CREDITS :

   NOAA